Time;durP1;ratioP1;P1;durP2;ratioP2;P2;SDS_P1;SDS_P2;PMS_P1;PMS_P2;Temp;Humidity;BMP_temperature;BMP_pressure;BME280_temperature;BME280_humidity;BME280_pressure;Samples;Min_cycle;Max_cycle;Signal;HPM_P1;HPM_P2
2023/08/08 00:01:22;;;;;;;9.75;1.52;;;;;;;22.86;34.65;101140.84;6147271;23;20012;-79
2023/08/08 00:03:51;;;;;;;2.50;1.30;;;;;;;22.63;34.76;101133.09;6133972;23;20265;-79
2023/08/08 00:06:18;;;;;;;3.88;1.50;;;;;;;22.62;35.21;101134.13;6167245;23;20336;-77
2023/08/08 00:08:44;;;;;;;3.28;1.73;;;;;;;22.62;35.47;101136.81;6169360;23;20439;-77
2023/08/08 00:11:11;;;;;;;5.53;1.63;;;;;;;22.59;35.70;101139.94;6115285;23;20017;-79
2023/08/08 00:13:41;;;;;;;4.78;1.92;;;;;;;22.57;35.68;101142.00;6142031;23;20035;-78
2023/08/08 00:16:08;;;;;;;1.92;1.27;;;;;;;22.33;35.38;101106.34;6136532;23;20485;-79
2023/08/08 00:18:35;;;;;;;3.67;1.83;;;;;;;22.10;35.40;101068.75;6141727;23;20025;-78
2023/08/08 00:21:04;;;;;;;2.05;1.42;;;;;;;22.52;35.63;101142.63;6135612;23;20029;-79
2023/08/08 00:23:30;;;;;;;3.33;1.67;;;;;;;22.32;35.62;101110.06;6155819;23;20017;-76
2023/08/08 00:25:57;;;;;;;1.75;1.38;;;;;;;22.49;35.79;101151.13;6171046;23;20273;-78
2023/08/08 00:28:35;;;;;;;2.20;1.88;;;;;;;22.27;36.07;101112.56;6143173;23;20437;-79
2023/08/08 00:31:02;;;;;;;2.90;1.80;;;;;;;22.37;35.89;101129.25;6168164;23;20021;-79
2023/08/08 00:33:29;;;;;;;2.75;1.45;;;;;;;22.19;35.92;101107.28;6141550;23;20120;-79
2023/08/08 00:35:58;;;;;;;5.32;1.60;;;;;;;22.30;35.69;101125.66;6152495;23;20025;-79
2023/08/08 00:38:27;;;;;;;2.75;1.50;;;;;;;22.05;36.03;101098.28;6150308;23;20088;-79
2023/08/08 00:40:54;;;;;;;2.78;1.50;;;;;;;22.25;35.70;101121.91;6175871;23;20223;-79
2023/08/08 00:43:21;;;;;;;2.22;1.30;;;;;;;22.16;35.70;101110.38;6169325;23;20468;-79
2023/08/08 00:45:47;;;;;;;5.82;1.88;;;;;;;21.93;35.27;101067.44;6134808;23;20321;-78
2023/08/08 00:48:18;;;;;;;2.50;1.50;;;;;;;22.29;35.94;101126.72;6175746;23;20099;-80
2023/08/08 00:50:49;;;;;;;5.45;1.50;;;;;;;22.00;35.30;101076.41;6145176;23;20017;-78
2023/08/08 00:53:26;;;;;;;5.28;1.50;;;;;;;22.35;35.12;101136.72;6142924;23;20017;-79
2023/08/08 00:55:57;;;;;;;2.28;1.50;;;;;;;22.38;35.29;101147.16;6149738;23;20031;-80
2023/08/08 00:58:27;;;;;;;3.22;1.40;;;;;;;22.28;35.12;101125.06;6166974;23;20043;-79
2023/08/08 01:01:00;;;;;;;3.33;1.30;;;;;;;22.26;35.06;101121.72;6127797;23;20017;-80
2023/08/08 01:03:29;;;;;;;2.90;1.52;;;;;;;22.38;35.77;101149.84;6178271;23;20364;-79
2023/08/08 01:06:13;;;;;;;2.78;1.45;;;;;;;22.30;35.13;101133.78;6146468;23;20113;-79
2023/08/08 01:08:50;;;;;;;5.68;1.30;;;;;;;22.25;35.40;101130.84;6175788;23;20083;-80
2023/08/08 01:11:17;;;;;;;3.72;1.30;;;;;;;22.30;35.54;101144.59;6151351;23;20271;-79
2023/08/08 01:13:48;;;;;;;2.83;1.25;;;;;;;22.23;35.51;101141.03;6153967;23;20127;-78
2023/08/08 01:16:18;;;;;;;6.25;1.35;;;;;;;22.17;35.18;101129.13;6150898;23;20028;-79
2023/08/08 01:18:50;;;;;;;1.90;1.40;;;;;;;22.12;35.71;101126.19;6168268;23;20100;-79
2023/08/08 01:21:16;;;;;;;8.68;1.55;;;;;;;21.89;35.86;101093.19;6172635;23;20431;-78
2023/08/08 01:23:54;;;;;;;2.40;1.63;;;;;;;22.10;35.42;101140.94;6150084;23;20021;-79
2023/08/08 01:26:26;;;;;;;4.57;1.60;;;;;;;22.11;35.50;101129.06;6178552;23;20336;-79
2023/08/08 01:28:54;;;;;;;2.58;1.45;;;;;;;22.25;35.21;101147.06;6139612;23;20485;-78
2023/08/08 01:31:21;;;;;;;3.00;1.60;;;;;;;22.26;35.36;101148.75;6138629;23;20334;-79
2023/08/08 01:33:48;;;;;;;3.75;1.73;;;;;;;22.31;35.66;101148.16;6151696;23;20558;-79
2023/08/08 01:36:30;;;;;;;2.58;1.40;;;;;;;22.11;36.07;101146.16;6175797;23;20024;-80
2023/08/08 01:39:05;;;;;;;5.78;1.60;;;;;;;22.00;35.77;101133.19;6143501;23;20035;-80
2023/08/08 01:41:38;;;;;;;4.78;1.27;;;;;;;21.97;35.86;101150.63;6162865;23;20469;-77
2023/08/08 01:44:06;;;;;;;1.92;1.40;;;;;;;21.87;35.88;101144.75;6191455;23;20271;-80
2023/08/08 01:46:34;;;;;;;2.85;1.17;;;;;;;21.87;35.91;101147.47;6150978;23;20189;-77
2023/08/08 01:49:05;;;;;;;3.72;1.45;;;;;;;21.94;35.89;101167.25;6177085;23;20063;-78
2023/08/08 01:51:35;;;;;;;2.33;1.48;;;;;;;21.52;35.84;101081.72;6143783;23;20025;-78
2023/08/08 01:54:02;;;;;;;3.65;1.15;;;;;;;21.71;35.88;101112.63;6136991;23;20362;-78
2023/08/08 01:56:29;;;;;;;4.15;1.40;;;;;;;21.47;35.98;101090.41;6143403;23;20101;-79
2023/08/08 01:58:56;;;;;;;2.45;1.33;;;;;;;21.58;36.40;101117.91;6160435;23;20254;-79
2023/08/08 02:01:23;;;;;;;1.50;1.13;;;;;;;21.50;36.43;101103.53;6156337;23;20431;-78
2023/08/08 02:03:52;;;;;;;9.27;2.00;;;;;;;21.73;36.27;101143.00;6155887;23;20029;-80
2023/08/08 02:06:19;;;;;;;2.20;1.23;;;;;;;21.72;36.35;101147.56;6150762;23;20021;-79
2023/08/08 02:08:52;;;;;;;3.40;1.30;;;;;;;21.71;36.56;101131.53;6163249;23;20029;-80
2023/08/08 02:11:18;;;;;;;2.17;1.70;;;;;;;21.80;36.10;101149.28;6173601;23;20249;-79
2023/08/08 02:13:45;;;;;;;7.00;1.48;;;;;;;21.72;35.94;101136.75;6168480;23;20484;-79
2023/08/08 02:16:12;;;;;;;6.82;1.45;;;;;;;21.03;35.88;101032.09;6156369;23;20409;-79
2023/08/08 02:18:40;;;;;;;3.65;1.40;;;;;;;21.66;36.09;101137.53;6125039;23;20364;-78
2023/08/08 02:21:08;;;;;;;3.22;1.40;;;;;;;21.74;36.13;101147.34;6138123;23;20063;-79
2023/08/08 02:23:38;;;;;;;4.63;1.63;;;;;;;21.60;36.55;101126.66;6177425;23;20357;-79
2023/08/08 02:26:05;;;;;;;2.00;1.30;;;;;;;21.64;36.82;101154.97;6189730;23;20095;-78
2023/08/08 02:28:36;;;;;;;3.35;1.73;;;;;;;21.64;36.85;101161.19;6140417;23;20084;-79
2023/08/08 02:31:05;;;;;;;;;;;;;;;21.59;36.52;101162.81;6153867;23;20357;-80
2023/08/08 02:33:40;;;;;;;3.33;1.20;;;;;;;21.44;36.51;101134.03;6140362;23;20277;-79
2023/08/08 02:36:06;;;;;;;2.67;1.10;;;;;;;21.33;36.78;101132.66;6177256;23;20449;-77
2023/08/08 02:38:33;;;;;;;4.00;1.48;;;;;;;21.62;37.11;101165.13;6153820;23;20445;-79
2023/08/08 02:40:59;;;;;;;3.17;0.95;;;;;;;21.40;37.12;101148.94;6149440;23;20021;-79
2023/08/08 02:43:26;;;;;;;3.63;1.50;;;;;;;21.51;36.85;101167.34;6181130;23;20071;-79
2023/08/08 02:45:54;;;;;;;3.03;1.45;;;;;;;21.12;36.70;101103.00;6168110;23;20457;-79
2023/08/08 02:48:24;;;;;;;5.47;1.33;;;;;;;21.51;36.97;101170.03;6186790;23;20197;-78
2023/08/08 02:50:51;;;;;;;2.83;1.45;;;;;;;21.37;36.93;101145.78;6125456;23;20426;-79
2023/08/08 02:53:17;;;;;;;2.17;1.42;;;;;;;21.46;36.92;101164.38;6128097;23;20110;-78
2023/08/08 02:55:44;;;;;;;3.13;1.20;;;;;;;21.22;36.71;101119.69;6148773;23;20036;-79
2023/08/08 02:58:11;;;;;;;3.83;1.42;;;;;;;21.34;37.14;101150.53;6136016;23;20021;-80
2023/08/08 03:00:38;;;;;;;2.63;1.40;;;;;;;21.13;37.14;101121.66;6133437;23;20017;-78
2023/08/08 03:03:05;;;;;;;6.15;1.70;;;;;;;21.23;37.15;101142.13;6142702;23;20032;-80
2023/08/08 03:05:32;;;;;;;2.78;1.52;;;;;;;21.32;36.67;101157.16;6147266;23;20017;-79
2023/08/08 03:08:02;;;;;;;2.47;1.30;;;;;;;21.45;36.66;101173.50;6145983;23;20492;-79
2023/08/08 03:10:29;;;;;;;6.35;1.52;;;;;;;21.46;36.06;101169.78;6148405;23;20100;-79
2023/08/08 03:12:56;;;;;;;2.83;1.48;;;;;;;21.20;36.46;101143.34;6145410;23;20025;-80
2023/08/08 03:15:23;;;;;;;2.72;1.30;;;;;;;21.31;36.25;101160.88;6150574;23;20449;-77
2023/08/08 03:17:50;;;;;;;5.30;1.15;;;;;;;21.48;36.19;101180.38;6156043;23;20385;-80
2023/08/08 03:20:17;;;;;;;2.88;1.27;;;;;;;21.46;35.95;101180.59;6169228;23;20594;-79
2023/08/08 03:22:44;;;;;;;3.65;1.35;;;;;;;21.18;36.19;101128.38;6139054;23;20425;-79
2023/08/08 03:25:14;;;;;;;14.40;1.88;;;;;;;21.59;36.07;101179.03;6155199;23;20024;-78
2023/08/08 03:27:41;;;;;;;4.68;1.67;;;;;;;21.26;36.09;101129.09;6158771;23;20025;-80
2023/08/08 03:30:11;;;;;;;7.97;1.73;;;;;;;21.20;35.98;101131.72;6157519;23;20028;-79
2023/08/08 03:32:39;;;;;;;6.32;1.48;;;;;;;21.38;36.38;101172.56;6152080;23;20017;-78
2023/08/08 03:35:06;;;;;;;2.85;1.20;;;;;;;21.18;36.33;101147.25;6121695;23;20048;-80
2023/08/08 03:37:33;;;;;;;4.28;1.48;;;;;;;21.18;36.35;101150.78;6156423;23;20055;-79
2023/08/08 03:40:00;;;;;;;4.20;1.52;;;;;;;21.24;36.35;101162.69;6140024;23;20024;-78
2023/08/08 03:42:27;;;;;;;4.22;1.40;;;;;;;21.23;37.07;101169.13;6167443;23;20186;-79
2023/08/08 03:44:54;;;;;;;2.28;1.73;;;;;;;21.05;36.81;101151.50;6180617;23;20194;-80
2023/08/08 03:47:22;;;;;;;4.90;1.52;;;;;;;21.12;37.24;101178.56;6134316;23;20104;-78
2023/08/08 03:49:54;;;;;;;3.08;1.33;;;;;;;20.99;37.40;101165.75;6178656;23;20487;-79
2023/08/08 03:52:21;;;;;;;3.80;1.30;;;;;;;21.04;37.50;101175.97;6163968;23;20512;-79
2023/08/08 03:54:48;;;;;;;4.30;1.33;;;;;;;20.89;36.66;101151.75;6128661;23;20024;-78
2023/08/08 03:57:19;;;;;;;2.50;1.33;;;;;;;21.10;36.68;101170.66;6138603;23;20180;-79
2023/08/08 03:59:46;;;;;;;;;;;;;;;21.00;36.94;101188.22;6165951;23;20017;-77
2023/08/08 04:02:13;;;;;;;6.85;1.88;;;;;;;20.85;36.80;101155.84;6148244;23;19916;-78
2023/08/08 04:04:40;;;;;;;1.77;1.30;;;;;;;20.52;36.86;101102.31;6171585;23;20462;-78
2023/08/08 04:07:07;;;;;;;2.58;1.27;;;;;;;20.83;36.80;101147.13;6122204;23;20021;-77
2023/08/08 04:09:37;;;;;;;9.23;1.63;;;;;;;20.78;37.26;101152.22;6141925;23;20028;-79
2023/08/08 04:12:04;;;;;;;3.83;1.40;;;;;;;20.90;36.46;101153.44;6131972;23;20071;-78
2023/08/08 04:14:31;;;;;;;2.05;1.30;;;;;;;21.01;36.86;101182.59;6184123;23;20021;-77
2023/08/08 04:16:59;;;;;;;3.95;1.33;;;;;;;20.94;36.89;101168.19;6128957;23;20025;-79
2023/08/08 04:19:26;;;;;;;8.85;1.45;;;;;;;20.96;37.13;101182.34;6132062;23;20036;-80
2023/08/08 04:21:53;;;;;;;2.38;1.02;;;;;;;20.88;37.08;101182.47;6124571;23;20283;-79
2023/08/08 04:24:20;;;;;;;3.38;1.30;;;;;;;20.38;37.41;101105.88;6159962;23;20021;-78
2023/08/08 04:26:46;;;;;;;2.60;1.85;;;;;;;20.80;37.42;101179.84;6157454;23;20400;-78
2023/08/08 04:29:16;;;;;;;2.78;1.83;;;;;;;20.79;37.64;101183.59;6183357;23;20023;-78
2023/08/08 04:31:43;;;;;;;2.95;1.45;;;;;;;20.49;37.94;101149.38;6154405;23;20238;-78
2023/08/08 04:34:10;;;;;;;6.38;1.45;;;;;;;20.61;38.23;101192.94;6140732;23;20388;-79
2023/08/08 04:36:37;;;;;;;3.15;1.20;;;;;;;20.54;39.07;101175.78;6161689;23;20017;-78
2023/08/08 04:39:03;;;;;;;2.50;0.90;;;;;;;20.63;38.44;101196.28;6156999;23;20048;-78
2023/08/08 04:41:30;;;;;;;3.08;1.40;;;;;;;20.45;38.38;101166.13;6191820;23;20380;-77
2023/08/08 04:43:57;;;;;;;2.88;1.17;;;;;;;20.70;37.92;101208.00;6172551;23;20020;-76
2023/08/08 04:46:31;;;;;;;4.93;2.35;;;;;;;20.73;37.85;101212.19;6163487;23;20136;-78
2023/08/08 04:49:05;;;;;;;2.05;1.23;;;;;;;20.63;37.94;101190.88;6143986;23;20146;-79
2023/08/08 04:51:33;;;;;;;5.22;2.03;;;;;;;20.81;39.15;101219.31;6155168;23;20017;-77
2023/08/08 04:54:00;;;;;;;18.88;1.42;;;;;;;20.64;38.87;101189.03;6179810;23;20027;-77
2023/08/08 04:56:29;;;;;;;2.13;1.42;;;;;;;20.74;39.07;101181.47;6161123;23;20065;-78
2023/08/08 04:58:57;;;;;;;5.53;2.28;;;;;;;20.82;39.22;101178.63;6120926;23;20245;-77
2023/08/08 05:01:24;;;;;;;5.75;2.42;;;;;;;20.88;38.34;101171.66;6159214;23;20032;-79
2023/08/08 05:03:51;;;;;;;6.80;1.98;;;;;;;20.98;38.89;101166.78;6193086;23;20021;-76
2023/08/08 05:06:22;;;;;;;4.55;2.40;;;;;;;21.01;39.08;101165.56;6183511;23;20021;-78
2023/08/08 05:08:51;;;;;;;6.93;2.22;;;;;;;21.00;39.36;101151.25;6182719;23;20071;-78
2023/08/08 05:11:18;;;;;;;10.50;2.13;;;;;;;21.06;39.33;101180.16;6139066;23;20352;-79
2023/08/08 05:13:45;;;;;;;3.92;1.75;;;;;;;20.70;40.45;101137.84;6180698;23;20284;-78
2023/08/08 05:16:12;;;;;;;10.80;2.20;;;;;;;20.98;40.67;101214.53;6191141;23;20029;-79
2023/08/08 05:18:45;;;;;;;3.88;2.28;;;;;;;20.96;41.36;101217.41;6182025;23;20068;-79
2023/08/08 05:21:12;;;;;;;5.28;1.90;;;;;;;20.85;41.20;101204.41;6123156;23;20067;-79
2023/08/08 05:23:39;;;;;;;4.60;2.22;;;;;;;20.97;40.32;101223.66;6163067;23;20017;-79
2023/08/08 05:26:06;;;;;;;7.80;2.42;;;;;;;20.98;41.40;101211.84;6184397;23;20021;-79
2023/08/08 05:28:33;;;;;;;4.50;1.88;;;;;;;21.00;39.82;101218.72;6174964;23;20025;-78
2023/08/08 05:30:59;;;;;;;5.72;1.83;;;;;;;21.12;40.14;101225.31;6162588;23;20048;-79
2023/08/08 05:33:26;;;;;;;8.35;1.80;;;;;;;21.18;39.93;101222.84;6138688;23;20409;-78
2023/08/08 05:35:57;;;;;;;6.97;2.03;;;;;;;20.82;41.00;101162.44;6158900;23;20413;-79
2023/08/08 05:38:27;;;;;;;4.30;1.42;;;;;;;20.90;40.81;101166.91;6180036;23;20234;-78
2023/08/08 05:40:56;;;;;;;21.05;1.92;;;;;;;21.13;41.19;101201.84;6185757;23;20541;-78
2023/08/08 05:43:23;;;;;;;6.70;2.22;;;;;;;21.34;41.29;101217.22;6182837;23;20065;-79
2023/08/08 05:45:50;;;;;;;6.63;1.83;;;;;;;21.35;40.50;101216.19;6166995;23;20104;-78
2023/08/08 05:48:20;;;;;;;7.53;1.92;;;;;;;21.10;40.94;101169.81;6170696;23;20301;-79
2023/08/08 05:50:51;;;;;;;7.30;2.72;;;;;;;21.46;40.64;101223.81;6163021;23;20017;-79
2023/08/08 05:53:18;;;;;;;;;;;;;;;21.52;41.87;101223.03;6169689;23;20457;-78
2023/08/08 05:55:45;;;;;;;7.70;2.00;;;;;;;21.59;42.01;101230.38;6137880;23;19926;-78
2023/08/08 05:58:13;;;;;;;6.88;1.80;;;;;;;21.65;42.12;101226.88;6161960;23;20303;-77
2023/08/08 06:00:43;;;;;;;6.65;1.98;;;;;;;21.62;41.04;101205.66;6148728;23;20369;-79
2023/08/08 06:03:10;;;;;;;20.33;2.97;;;;;;;21.83;40.42;101237.22;6116402;23;20053;-79
2023/08/08 06:05:37;;;;;;;16.02;2.20;;;;;;;21.74;39.75;101214.91;6110353;23;20049;-77
2023/08/08 06:08:07;;;;;;;6.90;1.90;;;;;;;21.82;39.02;101206.69;6120772;23;20014;-78
2023/08/08 06:10:34;;;;;;;6.90;2.10;;;;;;;21.92;40.48;101209.88;6103817;23;20022;-78
2023/08/08 06:13:06;;;;;;;4.40;1.58;;;;;;;22.22;39.39;101250.25;6112739;23;20100;-78
2023/08/08 06:15:33;;;;;;;8.07;1.70;;;;;;;22.10;39.25;101216.63;6116608;23;20458;-78
2023/08/08 06:18:00;;;;;;;3.60;1.55;;;;;;;22.20;38.76;101236.06;6097075;23;20274;-76
2023/08/08 06:20:28;;;;;;;17.60;3.33;;;;;;;22.46;39.46;101261.63;6115683;23;20026;-78
2023/08/08 06:22:55;;;;;;;15.13;3.05;;;;;;;22.54;40.11;101261.47;6099268;23;20026;-78
2023/08/08 06:25:24;;;;;;;9.20;2.58;;;;;;;22.56;41.34;101245.88;6087380;23;20035;-77
2023/08/08 06:27:51;;;;;;;6.72;2.75;;;;;;;22.53;41.83;101235.47;6121054;23;20017;-78
2023/08/08 06:30:18;;;;;;;6.00;2.50;;;;;;;22.71;42.23;101262.81;6128193;23;20401;-77
2023/08/08 06:32:53;;;;;;;9.80;2.30;;;;;;;22.52;42.31;101234.59;6111143;23;20018;-79
2023/08/08 06:35:22;;;;;;;9.07;2.70;;;;;;;22.79;42.54;101261.78;6099112;23;20014;-78
2023/08/08 06:37:52;;;;;;;6.20;1.80;;;;;;;22.84;42.14;101267.44;6113010;23;20028;-79
2023/08/08 06:40:18;;;;;;;4.95;1.63;;;;;;;22.74;41.38;101253.44;6111559;23;20060;-79
2023/08/08 06:42:45;;;;;;;13.07;2.70;;;;;;;22.82;41.74;101258.72;6115487;23;20767;-78
2023/08/08 06:45:13;;;;;;;8.65;2.33;;;;;;;22.87;40.82;101258.94;6116371;23;20017;-79
2023/08/08 06:47:40;;;;;;;11.45;2.15;;;;;;;22.87;40.97;101258.94;6096921;23;20022;-79
2023/08/08 06:50:12;;;;;;;6.43;2.53;;;;;;;22.99;40.90;101267.34;6121354;23;20433;-76
2023/08/08 06:52:45;;;;;;;15.43;2.80;;;;;;;23.06;40.37;101267.34;6115935;23;20080;-77
2023/08/08 06:55:12;;;;;;;3.40;1.80;;;;;;;23.25;40.68;101291.81;6097995;23;20112;-79
2023/08/08 06:57:47;;;;;;;7.55;1.90;;;;;;;23.36;38.55;101297.69;6097498;23;20021;-79
2023/08/08 07:00:16;;;;;;;4.22;1.60;;;;;;;23.24;36.90;101271.19;6095399;23;20394;-79
2023/08/08 07:02:43;;;;;;;4.18;1.88;;;;;;;23.50;36.48;101302.09;6123956;23;20025;-77
2023/08/08 07:05:13;;;;;;;4.35;1.70;;;;;;;23.57;35.58;101297.53;6152960;23;20021;-79
2023/08/08 07:07:41;;;;;;;3.60;1.55;;;;;;;23.59;35.93;101290.03;6178045;23;20013;-79
2023/08/08 07:10:09;;;;;;;2.15;1.75;;;;;;;23.57;36.21;101302.09;6137714;23;20429;-80
2023/08/08 07:12:38;;;;;;;4.73;2.23;;;;;;;23.28;35.77;101265.34;6121937;23;20484;-79
2023/08/08 07:15:07;;;;;;;8.20;1.70;;;;;;;23.62;35.30;101305.88;6166636;23;20025;-78
2023/08/08 07:17:34;;;;;;;3.40;1.27;;;;;;;23.67;34.27;101306.09;6133676;23;20405;-80
2023/08/08 07:20:02;;;;;;;2.92;1.33;;;;;;;23.80;33.93;101304.47;6146370;23;20498;-77
2023/08/08 07:22:28;;;;;;;2.70;1.58;;;;;;;23.87;33.95;101305.31;6148606;23;20453;-77
2023/08/08 07:24:55;;;;;;;3.90;1.77;;;;;;;23.53;34.75;101246.66;6147314;23;20405;-78
2023/08/08 07:27:26;;;;;;;3.50;1.50;;;;;;;23.77;34.52;101307.59;6133700;23;20349;-78
2023/08/08 07:30:00;;;;;;;14.43;2.25;;;;;;;23.23;34.79;101226.19;6123441;23;20023;-79
2023/08/08 07:32:29;;;;;;;4.80;1.40;;;;;;;23.48;34.25;101293.34;6136516;23;20028;-76
2023/08/08 07:35:01;;;;;;;5.13;2.08;;;;;;;23.61;33.48;101298.75;6148954;23;20032;-77
2023/08/08 07:37:28;;;;;;;9.50;1.80;;;;;;;23.53;33.25;101296.25;6157200;23;20056;-78
2023/08/08 07:39:55;;;;;;;4.82;1.90;;;;;;;23.25;33.57;101247.63;6128308;23;20029;-77
2023/08/08 07:42:33;;;;;;;3.63;1.92;;;;;;;23.74;33.25;101310.69;6114829;23;20033;-78
2023/08/08 07:45:04;;;;;;;4.68;1.83;;;;;;;23.56;32.91;101278.75;6128708;23;20128;-78
2023/08/08 07:47:30;;;;;;;4.53;2.10;;;;;;;23.72;33.15;101291.09;6164730;23;20032;-77
2023/08/08 07:49:57;;;;;;;6.82;1.98;;;;;;;23.63;32.90;101264.16;6132479;23;20021;-79
2023/08/08 07:52:24;;;;;;;5.00;2.10;;;;;;;23.82;33.28;101296.97;6140928;23;20017;-76
2023/08/08 07:54:51;;;;;;;4.82;1.88;;;;;;;23.88;32.89;101294.28;6163054;23;20017;-76
2023/08/08 07:57:20;;;;;;;5.07;2.03;;;;;;;23.88;32.88;101309.69;6156416;23;20047;-79
2023/08/08 07:59:49;;;;;;;5.80;1.67;;;;;;;23.72;33.21;101286.50;6144926;23;20258;-76
2023/08/08 08:02:26;;;;;;;3.92;1.90;;;;;;;23.00;33.11;101155.28;6119809;23;20650;-78
2023/08/08 08:04:54;;;;;;;5.57;1.58;;;;;;;23.76;33.24;101289.66;6125775;23;20091;-78
2023/08/08 08:07:21;;;;;;;12.23;2.05;;;;;;;23.85;33.33;101299.25;6165040;23;20025;-78
2023/08/08 08:09:55;;;;;;;4.35;2.15;;;;;;;23.86;33.94;101290.06;6157254;23;20017;-79
2023/08/08 08:12:24;;;;;;;6.03;2.30;;;;;;;24.03;33.62;101304.06;6129951;23;20048;-77
2023/08/08 08:14:50;;;;;;;3.38;2.17;;;;;;;23.88;32.86;101261.72;6139584;23;20025;-77
2023/08/08 08:17:20;;;;;;;5.13;1.92;;;;;;;24.18;33.55;101306.59;6145489;23;20017;-79
2023/08/08 08:19:47;;;;;;;4.35;2.30;;;;;;;24.22;33.62;101294.25;6162086;23;20397;-79
2023/08/08 08:22:16;;;;;;;6.28;1.73;;;;;;;24.09;33.10;101268.81;6104542;23;20018;-78
2023/08/08 08:24:45;;;;;;;8.85;2.35;;;;;;;24.44;33.17;101308.41;6158621;23;20021;-78
2023/08/08 08:27:13;;;;;;;4.97;2.15;;;;;;;24.45;32.69;101301.94;6120676;23;20028;-79
2023/08/08 08:29:40;;;;;;;4.70;2.10;;;;;;;24.40;32.96;101275.44;6137358;23;20555;-78
2023/08/08 08:32:07;;;;;;;9.23;2.67;;;;;;;24.60;32.37;101299.03;6128233;23;20017;-79
2023/08/08 08:34:33;;;;;;;3.80;2.15;;;;;;;24.43;32.09;101256.03;6179161;23;20032;-78
2023/08/08 08:37:01;;;;;;;9.35;1.95;;;;;;;24.73;32.27;101298.97;6149863;23;20021;-79
2023/08/08 08:39:28;;;;;;;4.43;1.88;;;;;;;24.74;32.00;101265.38;6153344;23;20017;-79
2023/08/08 08:42:04;;;;;;;5.57;1.95;;;;;;;24.36;31.18;101205.53;6167147;23;20088;-77
2023/08/08 08:44:32;;;;;;;6.40;2.33;;;;;;;25.00;31.73;101302.47;6138665;23;20023;-79
2023/08/08 08:47:04;;;;;;;6.95;2.05;;;;;;;25.06;32.34;101300.75;6171501;23;20478;-78
2023/08/08 08:49:35;;;;;;;7.40;2.10;;;;;;;25.15;31.91;101300.31;6131570;23;20692;-78
2023/08/08 08:52:04;;;;;;;4.32;1.60;;;;;;;24.99;32.37;101262.75;6128632;23;20017;-79
2023/08/08 08:54:35;;;;;;;9.60;2.00;;;;;;;25.15;32.17;101294.03;6113126;23;20522;-80
2023/08/08 08:57:02;;;;;;;7.28;2.20;;;;;;;25.20;31.75;101291.53;6135487;23;20017;-78
2023/08/08 08:59:32;;;;;;;2.90;1.60;;;;;;;25.20;31.40;101264.38;6137888;23;20025;-78
2023/08/08 09:01:59;;;;;;;6.28;1.88;;;;;;;25.38;30.99;101294.34;6133241;23;20059;-79
2023/08/08 09:04:29;;;;;;;10.70;1.98;;;;;;;24.92;31.53;101202.22;6168969;23;20025;-79
2023/08/08 09:06:56;;;;;;;7.30;1.75;;;;;;;24.94;30.88;101164.81;6174963;23;20020;-79
2023/08/08 09:09:24;;;;;;;9.57;1.75;;;;;;;25.61;30.86;101273.09;6163547;23;20411;-79
2023/08/08 09:11:55;;;;;;;10.18;2.55;;;;;;;25.64;31.09;101259.91;6168460;23;20021;-78
2023/08/08 09:14:23;;;;;;;;;;;;;;;25.92;31.21;101299.47;6154361;23;20021;-79
2023/08/08 09:16:53;;;;;;;10.38;1.80;;;;;;;26.14;30.92;101298.03;6162281;23;19963;-79
2023/08/08 09:19:21;;;;;;;9.60;2.00;;;;;;;26.07;30.52;101266.47;6137170;23;20457;-80
2023/08/08 09:21:49;;;;;;;2.20;1.80;;;;;;;25.80;30.79;101226.72;6126797;23;20017;-79
2023/08/08 09:24:17;;;;;;;5.40;1.42;;;;;;;26.22;30.80;101275.97;6154938;23;20421;-79
2023/08/08 09:26:44;;;;;;;7.43;1.60;;;;;;;26.33;29.73;101300.78;6141363;23;20032;-79
2023/08/08 09:29:14;;;;;;;3.47;1.25;;;;;;;26.34;30.09;101289.69;6120383;23;20021;-79
2023/08/08 09:31:41;;;;;;;2.92;1.83;;;;;;;26.41;30.16;101281.47;6131939;23;20044;-79
2023/08/08 09:34:08;;;;;;;4.38;1.55;;;;;;;26.56;30.16;101292.00;6162096;23;20044;-78
2023/08/08 09:36:36;;;;;;;3.40;1.83;;;;;;;26.50;30.21;101285.53;6167820;23;20494;-79
2023/08/08 09:39:04;;;;;;;3.30;1.42;;;;;;;26.49;30.04;101283.88;6151120;23;20021;-78
2023/08/08 09:41:40;;;;;;;2.35;1.38;;;;;;;26.73;29.39;101281.34;6114581;23;20270;-79
2023/08/08 09:44:13;;;;;;;3.80;1.38;;;;;;;27.05;29.47;101282.81;6156794;23;20220;-79
2023/08/08 09:46:40;;;;;;;2.63;1.80;;;;;;;26.13;29.08;101122.22;6121702;23;20512;-79
2023/08/08 09:49:12;;;;;;;3.65;1.60;;;;;;;27.19;29.08;101274.53;6147684;23;20021;-80
2023/08/08 09:51:40;;;;;;;4.85;2.25;;;;;;;27.29;28.90;101269.34;6159030;23;20021;-80
2023/08/08 09:54:07;;;;;;;3.45;1.80;;;;;;;27.39;29.01;101276.97;6174073;23;20029;-80
2023/08/08 09:56:35;;;;;;;8.30;2.00;;;;;;;27.74;28.40;101257.13;6136571;23;20336;-79
2023/08/08 09:59:05;;;;;;;5.18;1.75;;;;;;;27.79;27.75;101247.16;6158766;23;20029;-78
2023/08/08 10:01:32;;;;;;;3.53;1.58;;;;;;;27.66;28.12;101211.94;6153529;23;20314;-81
2023/08/08 10:03:59;;;;;;;2.90;1.70;;;;;;;27.82;27.89;101227.63;6158559;23;20021;-78
2023/08/08 10:06:26;;;;;;;2.33;1.58;;;;;;;28.30;28.07;101267.50;6190342;23;20345;-79
2023/08/08 10:08:56;;;;;;;3.25;1.70;;;;;;;28.08;28.09;101209.13;6155548;23;20108;-80
2023/08/08 10:11:24;;;;;;;4.70;1.90;;;;;;;28.52;27.98;101264.19;6159260;23;20024;-79
2023/08/08 10:13:54;;;;;;;4.50;1.73;;;;;;;28.31;27.39;101200.09;6157057;23;20768;-78
2023/08/08 10:16:23;;;;;;;3.10;1.60;;;;;;;28.83;27.17;101253.91;6159768;23;20017;-80
2023/08/08 10:19:02;;;;;;;7.65;1.88;;;;;;;28.93;26.67;101248.63;6138273;23;20092;-80
2023/08/08 10:21:38;;;;;;;4.45;1.70;;;;;;;28.73;26.76;101227.22;6145796;23;20650;-80
2023/08/08 10:24:13;;;;;;;4.72;1.90;;;;;;;29.03;26.82;101254.31;6138657;23;20021;-79
2023/08/08 10:27:00;;;;;;;5.35;2.33;;;;;;;29.25;25.90;101250.91;6157655;23;20013;-80
2023/08/08 10:29:28;;;;;;;3.45;1.77;;;;;;;28.89;26.63;101199.13;6121506;23;20792;-79
2023/08/08 10:32:05;;;;;;;4.18;2.40;;;;;;;29.25;26.49;101250.91;6144165;23;20025;-80
2023/08/08 10:34:48;;;;;;;4.88;2.08;;;;;;;29.50;26.90;101242.34;6145317;23;20097;-82
2023/08/08 10:37:23;;;;;;;3.88;1.88;;;;;;;29.32;26.23;101175.03;6172939;23;20021;-80
2023/08/08 10:39:57;;;;;;;4.70;1.77;;;;;;;29.86;26.15;101224.66;6153013;23;20048;-80
2023/08/08 10:42:26;;;;;;;5.15;1.67;;;;;;;30.11;25.72;101243.34;6137967;23;20078;-79
2023/08/08 10:44:58;;;;;;;3.85;1.77;;;;;;;30.32;25.62;101238.19;6161199;23;20475;-80
2023/08/08 10:47:39;;;;;;;1.95;1.70;;;;;;;30.39;25.74;101236.94;6182868;23;20485;-79
2023/08/08 10:50:11;;;;;;;3.15;1.92;;;;;;;30.69;25.13;101232.94;6140432;23;20029;-80
2023/08/08 10:52:52;;;;;;;3.13;2.20;;;;;;;30.49;24.78;101189.69;6123508;23;20101;-80
2023/08/08 10:55:23;;;;;;;;;;;;;;;30.80;24.76;101231.97;6143851;23;20045;-79
2023/08/08 10:58:08;;;;;;;2.33;1.60;;;;;;;30.80;25.22;101228.38;6161575;23;19919;-81
2023/08/08 11:00:36;;;;;;;4.07;2.05;;;;;;;30.59;24.78;101167.88;6138609;23;20205;-80
2023/08/08 11:03:12;;;;;;;5.50;1.92;;;;;;;31.04;25.16;101215.25;6145429;23;20355;-80
2023/08/08 11:05:46;;;;;;;9.07;1.70;;;;;;;31.15;24.99;101211.53;6175664;23;20021;-80
2023/08/08 11:08:13;;;;;;;4.63;1.75;;;;;;;31.40;24.76;101227.44;6161447;23;20025;-81
2023/08/08 11:10:44;;;;;;;4.28;1.98;;;;;;;31.67;24.48;101221.88;6175279;23;20024;-80
2023/08/08 11:13:11;;;;;;;3.67;2.00;;;;;;;31.83;24.21;101197.31;6165394;23;20199;-80
2023/08/08 11:15:38;;;;;;;2.95;1.90;;;;;;;32.21;23.97;101209.09;6154079;23;20021;-80
2023/08/08 11:18:10;;;;;;;4.20;1.67;;;;;;;32.20;23.23;101190.97;6135901;23;20096;-81
2023/08/08 11:20:44;;;;;;;3.55;2.22;;;;;;;32.48;23.06;101215.28;6155179;23;20285;-81
2023/08/08 11:23:14;;;;;;;9.90;2.25;;;;;;;32.56;22.28;101225.78;6147443;23;20248;-81
2023/08/08 11:25:42;;;;;;;4.50;1.75;;;;;;;32.42;22.50;101208.09;6147842;23;20032;-81
2023/08/08 11:28:16;;;;;;;2.38;1.60;;;;;;;32.34;22.90;101197.63;6138887;23;20017;-81
2023/08/08 11:30:46;;;;;;;5.55;1.80;;;;;;;32.44;23.16;101186.66;6151145;23;20476;-80
2023/08/08 11:33:14;;;;;;;5.40;1.90;;;;;;;32.73;23.31;101206.31;6131093;23;20079;-81
2023/08/08 11:35:48;;;;;;;6.50;1.60;;;;;;;32.51;21.93;101137.81;6142547;23;20489;-81